Avon, SD

12:19 PM CDT on May 05, 2015 (GMT -0500)
Hajek Farms | | Change Station
CLOSE
Current Station
Personal Weather Station
Location: Tyndall, SD
Elevation: 1378 ft
Nearby Weather Stations

Elev 1378 ft 42.97 °N, 97.92 °W | Updated 14 minutes ago

Overcast
Overcast
59.5 °F
Feels Like 59.5 °F
N
9.0
Wind Variable Wind from ESE
Gusts 10.0 mph

Today
High -- | Low -- °F
--% Chance of Precip.
Yesterday
High -- | Low -- °F
Precip. -- in
6:20 AM 8:37 PM
Full, 97% visible
Pressure 30.06 in
Visibility 10.0 miles
Clouds Overcast 1400 ft
Dew Point 52 °F
Humidity 76%
Rainfall 0.00 in
Snow Depth Not available.
UV 3 out of 12
Pollen 8.30 out of 12
Air Quality Not available.
Flu Activity Sporadic
METAR KYKN 051715Z AUTO 16007KT 10SM OVC014 16/12 A3006 RMK AO1

More Conditions Fewer Conditions

Pressure 30.06 in
Visibility 10.0 miles
Clouds Overcast 1400 ft
Dew Point 52 °F
Humidity 76%
Rainfall 0.00 in
Snow Depth Not available.
UV 3 out of 12
Pollen 8.30 out of 12
Air Quality Not available.
Flu Activity Sporadic
METAR KYKN 051715Z AUTO 16007KT 10SM OVC014 16/12 A3006 RMK AO1

More Conditions Fewer Conditions

10-Day Weather Forecast

Almanac

Astronomy

May. 05, 2015 Rise Set
Actual Time
Civil Twilight
Nautical Twilight
Astronomical Twilight
Moon
Length of Visible Light
Length of Day
Tomorrow will be .
, % of the Moon is Illuminated

Today's Extremes

State Highs State Lows

Community

WunderPhotos

Upload Photos

1,818,944 photos uploaded!

WunderBlogs® & News

Nearby

Air Quality

  Air Quality AQ Index Pollutant
Not available.

Snow Depth

Station Depth Elevation

Earthquake Activity

City Distance Mag. Time & Date
Minimum magnitude displayed is 2.5.

Coastal Water Temperatures

Place Temperature

Stations

Nearby Weather Stations

Station Location Temp. Windchill Dew Point Humidity Wind Precip. Elev Updated Type